首页
METAR-TAF:

METAR-TAF

机场 :

门罗, 北卡罗来纳州, 美国

纬度: 35-01-01N, 经度: 080-37-14W, 海拔: 207米

当前天气观测

该预报发布于52分钟前的08:53 UTC
风速6节,风向北转东北
温度 4°C
湿度 87%
气压 1022 hPa
能見度: 16.1公里
散云层高于9000英尺
阴天层高于11000英尺
小雨

METAR: KEQY 150853Z AUTO 02006KT 10SM -RA SCT090 OVC110 04/02 A3019 RMK AO2 SLP241 P0000 60003 T00390017 58019

时间: 04:45 (09:45 UTC)


TAF: 丢失

超过4000个机场的气象观测和天气预报(METAR&TAF报告)。

可查询的气象台以黄色和红色小点在地图上表示。

将鼠标移到小点上方,可查看气象台名称。

然后点击查看天气观测和预报。

如需切换地图:点击带黑十字的绿色按钮放大地图;点击带横线的绿色按钮缩小地图;或者点击绿色箭头查看邻近地区的地图。


METAR-TAF: